Rona II — MPKR2 — position and weather

sailwx.info

Track history (hours):
 
Tides and Currents Weather Stations Pressure Air Temp Water Temp Dewpoint Dewpoint Depression Visibility Wind Speed Wind Dir Waves Ship Positions

Rona II

Last reported at 2017-Oct-29 10:48 UTC. Time now 2017-Nov-19 01:25 UTC.
Position N 50°50' W 001°18'.
Warning: this ship's position is 20 days out of date.

Length 22 m.

Type: Sailing vessel. MMSI: 232714000.

Date/timePositionNaut miles runAvg speedWind from/ knotsBaromVisibWave heightAir tempDewpointWater temp
2017-Oct-29 10:48N 50°50' W 001°18'1 2.6
2017-Oct-29 10:30N 50°49' W 001°18'2 3.3
2017-Oct-29 09:59N 50°48' W 001°18'2 0.1
2017-Oct-28 15:51N 50°46' W 001°16'2 4.8
2017-Oct-28 15:30N 50°47' W 001°13'1 1.3
2017-Oct-28 15:00N 50°47' W 001°13'1 1.4
2017-Oct-28 14:30N 50°46' W 001°13'1 1.7
2017-Oct-28 13:54N 50°45' W 001°14'0 0.2
2017-Oct-28 13:30N 50°45' W 001°14'0 0.0
2017-Oct-28 13:00N 50°45' W 001°14'0 0.0
2017-Oct-28 12:30N 50°45' W 001°14'0 0.0
2017-Oct-28 12:00N 50°45' W 001°14'0 0.3
2017-Oct-28 11:22N 50°46' W 001°14'2 4.5
2017-Oct-28 11:00N 50°47' W 001°15'1 1.6
2017-Oct-28 10:28N 50°47' W 001°14'1 2.2
2017-Oct-28 09:59N 50°47' W 001°16'2 3.4
2017-Oct-28 09:27N 50°47' W 001°18'2 4.9
2017-Oct-28 08:57N 50°50' W 001°18'1 0.0
2017-Oct-27 11:27N 50°51' W 001°19'1 0.7
2017-Oct-27 09:52N 50°50' W 001°19'1 3.7
2017-Oct-27 09:29N 50°48' W 001°18'2 0.1
2017-Oct-26 15:44N 50°46' W 001°16'1 5.0
2017-Oct-26 15:30N 50°46' W 001°14'2 4.5
2017-Oct-26 15:00N 50°47' W 001°11'3 5.3
2017-Oct-26 14:30N 50°45' W 001°08'2 3.7
2017-Oct-26 14:00N 50°44' W 001°05'1 2.9
2017-Oct-26 13:30N 50°44' W 001°03'2 3.5
2017-Oct-26 13:00N 50°43' W 001°01'1 2.0
2017-Oct-26 12:30N 50°43' W 000°59'2 1.5
2017-Oct-26 11:21N 50°41' W 000°58'2 3.9
2017-Oct-26 10:57N 50°42' W 000°59'2 3.6
2017-Oct-26 10:30N 50°44' W 001°01'2 3.6
2017-Oct-26 10:00N 50°44' W 001°04'2 3.8
2017-Oct-26 09:30N 50°46' W 001°05'3 5.1
2017-Oct-26 09:00N 50°48' W 001°07'0 0.9
2017-Oct-26 08:28N 50°48' W 001°07'0 0.0
2017-Oct-26 07:58N 50°48' W 001°07'0 0.0
2017-Oct-25 14:26N 50°48' W 001°07'0 0.0
2017-Oct-25 13:59N 50°48' W 001°07'2 4.5
2017-Oct-25 13:30N 50°46' W 001°09'4 6.8
2017-Oct-25 12:59N 50°46' W 001°14'14 0.6
2017-Oct-24 12:07N 50°40' W 001°35'1 6.6
2017-Oct-24 12:00N 50°40' W 001°36'3 6.5
2017-Oct-24 11:29N 50°38' W 001°40'4 7.6
2017-Oct-24 10:59N 50°38' W 001°46'4 7.4
2017-Oct-24 10:30N 50°38' W 001°52'3 5.7
2017-Oct-24 10:00N 50°40' W 001°56'2 4.8
2017-Oct-24 09:30N 50°42' W 001°57'2 2.9
2017-Oct-24 08:59N 50°43' W 001°59'0 0.0
2017-Oct-24 08:29N 50°43' W 001°59'0 0.0
2017-Oct-24 07:29N 50°43' W 001°59'0 0.0
2017-Oct-24 06:53N 50°43' W 001°59'0 0.0
2017-Oct-24 06:29N 50°43' W 001°59'0 0.0
2017-Oct-24 05:59N 50°43' W 001°59'0 0.0
2017-Oct-24 05:29N 50°43' W 001°59'0 0.0
2017-Oct-24 04:53N 50°43' W 001°59'0 0.0
2017-Oct-24 04:29N 50°43' W 001°59'0 0.0
2017-Oct-24 03:59N 50°43' W 001°59'0 0.0
2017-Oct-24 03:29N 50°43' W 001°59'0 0.0
2017-Oct-24 02:59N 50°43' W 001°59'0 0.0
2017-Oct-24 02:29N 50°43' W 001°59'0 0.0
2017-Oct-24 01:59N 50°43' W 001°59'0 0.0
2017-Oct-24 01:29N 50°43' W 001°59'0 0.0
2017-Oct-24 00:59N 50°43' W 001°59'0 0.0
2017-Oct-24 00:23N 50°43' W 001°59'0 0.0
2017-Oct-23 23:59N 50°43' W 001°59'0 0.0
2017-Oct-23 23:29N 50°43' W 001°59'0 0.0
2017-Oct-23 22:59N 50°43' W 001°59'0 0.0
2017-Oct-23 22:29N 50°43' W 001°59'0 0.0
2017-Oct-23 21:59N 50°43' W 001°59'0 0.0
2017-Oct-23 21:23N 50°43' W 001°59'0 0.0
2017-Oct-23 20:59N 50°43' W 001°59'0 0.0
2017-Oct-23 20:26N 50°43' W 001°59'0 0.0
2017-Oct-23 19:59N 50°43' W 001°59'0 0.0
2017-Oct-23 19:29N 50°43' W 001°59'0 0.0
2017-Oct-23 18:59N 50°43' W 001°59'0 0.0
2017-Oct-23 18:29N 50°43' W 001°59'0 0.0
2017-Oct-23 17:59N 50°43' W 001°59'0 0.0
2017-Oct-23 17:29N 50°43' W 001°59'0 0.0
2017-Oct-23 16:59N 50°43' W 001°59'0 0.1
2017-Oct-23 16:31N 50°43' W 001°59'1 2.0
2017-Oct-23 16:00N 50°42' W 001°58'2 4.5
2017-Oct-23 15:30N 50°40' W 001°56'3 5.2
2017-Oct-23 15:00N 50°38' W 001°54'3 6.1
2017-Oct-23 14:30N 50°37' W 001°49'3 5.1
2017-Oct-23 14:00N 50°40' W 001°47'3 5.0
2017-Oct-23 13:30N 50°39' W 001°43'3 6.6
2017-Oct-23 13:00N 50°43' W 001°42'3 5.9
2017-Oct-23 12:29N 50°43' W 001°37'14 0.6
2017-Oct-22 12:17N 50°46' W 001°16'1 4.0
2017-Oct-22 12:00N 50°46' W 001°15'2 3.1
2017-Oct-22 11:30N 50°45' W 001°13'2 3.4
2017-Oct-22 11:00N 50°46' W 001°10'3 6.8
2017-Oct-22 10:30N 50°46' W 001°15'2 4.6
2017-Oct-22 10:00N 50°48' W 001°18'1 2.6
2017-Oct-22 09:27N 50°49' W 001°18'  
Track history (hours):
 
Tides and Currents Weather Stations Pressure Air Temp Water Temp Dewpoint Dewpoint Depression Visibility Wind Speed Wind Dir Waves Ship Positions

Rona II

Last reported at 2017-Oct-29 10:48 UTC. Time now 2017-Nov-19 01:25 UTC.
Position N 50°50' W 001°18'.
Warning: this ship's position is 20 days out of date.

Length 22 m.

Type: Sailing vessel. MMSI: 232714000.

Date/timePositionNaut miles runAvg speedWind from/ knotsBaromVisibWave heightAir tempDewpointWater temp
2017-Oct-29 10:48N 50°50' W 001°18'1 2.6
2017-Oct-29 10:30N 50°49' W 001°18'2 3.3
2017-Oct-29 09:59N 50°48' W 001°18'2 0.1
2017-Oct-28 15:51N 50°46' W 001°16'2 4.8
2017-Oct-28 15:30N 50°47' W 001°13'1 1.3
2017-Oct-28 15:00N 50°47' W 001°13'1 1.4
2017-Oct-28 14:30N 50°46' W 001°13'1 1.7
2017-Oct-28 13:54N 50°45' W 001°14'0 0.2
2017-Oct-28 13:30N 50°45' W 001°14'0 0.0
2017-Oct-28 13:00N 50°45' W 001°14'0 0.0
2017-Oct-28 12:30N 50°45' W 001°14'0 0.0
2017-Oct-28 12:00N 50°45' W 001°14'0 0.3
2017-Oct-28 11:22N 50°46' W 001°14'2 4.5
2017-Oct-28 11:00N 50°47' W 001°15'1 1.6
2017-Oct-28 10:28N 50°47' W 001°14'1 2.2
2017-Oct-28 09:59N 50°47' W 001°16'2 3.4
2017-Oct-28 09:27N 50°47' W 001°18'2 4.9
2017-Oct-28 08:57N 50°50' W 001°18'1 0.0
2017-Oct-27 11:27N 50°51' W 001°19'1 0.7
2017-Oct-27 09:52N 50°50' W 001°19'1 3.7
2017-Oct-27 09:29N 50°48' W 001°18'2 0.1
2017-Oct-26 15:44N 50°46' W 001°16'1 5.0
2017-Oct-26 15:30N 50°46' W 001°14'2 4.5
2017-Oct-26 15:00N 50°47' W 001°11'3 5.3
2017-Oct-26 14:30N 50°45' W 001°08'2 3.7
2017-Oct-26 14:00N 50°44' W 001°05'1 2.9
2017-Oct-26 13:30N 50°44' W 001°03'2 3.5
2017-Oct-26 13:00N 50°43' W 001°01'1 2.0
2017-Oct-26 12:30N 50°43' W 000°59'2 1.5
2017-Oct-26 11:21N 50°41' W 000°58'2 3.9
2017-Oct-26 10:57N 50°42' W 000°59'2 3.6
2017-Oct-26 10:30N 50°44' W 001°01'2 3.6
2017-Oct-26 10:00N 50°44' W 001°04'2 3.8
2017-Oct-26 09:30N 50°46' W 001°05'3 5.1
2017-Oct-26 09:00N 50°48' W 001°07'0 0.9
2017-Oct-26 08:28N 50°48' W 001°07'0 0.0
2017-Oct-26 07:58N 50°48' W 001°07'0 0.0
2017-Oct-25 14:26N 50°48' W 001°07'0 0.0
2017-Oct-25 13:59N 50°48' W 001°07'2 4.5
2017-Oct-25 13:30N 50°46' W 001°09'4 6.8
2017-Oct-25 12:59N 50°46' W 001°14'14 0.6
2017-Oct-24 12:07N 50°40' W 001°35'1 6.6
2017-Oct-24 12:00N 50°40' W 001°36'3 6.5
2017-Oct-24 11:29N 50°38' W 001°40'4 7.6
2017-Oct-24 10:59N 50°38' W 001°46'4 7.4
2017-Oct-24 10:30N 50°38' W 001°52'3 5.7
2017-Oct-24 10:00N 50°40' W 001°56'2 4.8
2017-Oct-24 09:30N 50°42' W 001°57'2 2.9
2017-Oct-24 08:59N 50°43' W 001°59'0 0.0
2017-Oct-24 08:29N 50°43' W 001°59'0 0.0
2017-Oct-24 07:29N 50°43' W 001°59'0 0.0
2017-Oct-24 06:53N 50°43' W 001°59'0 0.0
2017-Oct-24 06:29N 50°43' W 001°59'0 0.0
2017-Oct-24 05:59N 50°43' W 001°59'0 0.0
2017-Oct-24 05:29N 50°43' W 001°59'0 0.0
2017-Oct-24 04:53N 50°43' W 001°59'0 0.0
2017-Oct-24 04:29N 50°43' W 001°59'0 0.0
2017-Oct-24 03:59N 50°43' W 001°59'0 0.0
2017-Oct-24 03:29N 50°43' W 001°59'0 0.0
2017-Oct-24 02:59N 50°43' W 001°59'0 0.0
2017-Oct-24 02:29N 50°43' W 001°59'0 0.0
2017-Oct-24 01:59N 50°43' W 001°59'0 0.0
2017-Oct-24 01:29N 50°43' W 001°59'0 0.0
2017-Oct-24 00:59N 50°43' W 001°59'0 0.0
2017-Oct-24 00:23N 50°43' W 001°59'0 0.0
2017-Oct-23 23:59N 50°43' W 001°59'0 0.0
2017-Oct-23 23:29N 50°43' W 001°59'0 0.0
2017-Oct-23 22:59N 50°43' W 001°59'0 0.0
2017-Oct-23 22:29N 50°43' W 001°59'0 0.0
2017-Oct-23 21:59N 50°43' W 001°59'0 0.0
2017-Oct-23 21:23N 50°43' W 001°59'0 0.0
2017-Oct-23 20:59N 50°43' W 001°59'0 0.0
2017-Oct-23 20:26N 50°43' W 001°59'0 0.0
2017-Oct-23 19:59N 50°43' W 001°59'0 0.0
2017-Oct-23 19:29N 50°43' W 001°59'0 0.0
2017-Oct-23 18:59N 50°43' W 001°59'0 0.0
2017-Oct-23 18:29N 50°43' W 001°59'0 0.0
2017-Oct-23 17:59N 50°43' W 001°59'0 0.0
2017-Oct-23 17:29N 50°43' W 001°59'0 0.0
2017-Oct-23 16:59N 50°43' W 001°59'0 0.1
2017-Oct-23 16:31N 50°43' W 001°59'1 2.0
2017-Oct-23 16:00N 50°42' W 001°58'2 4.5
2017-Oct-23 15:30N 50°40' W 001°56'3 5.2
2017-Oct-23 15:00N 50°38' W 001°54'3 6.1
2017-Oct-23 14:30N 50°37' W 001°49'3 5.1
2017-Oct-23 14:00N 50°40' W 001°47'3 5.0
2017-Oct-23 13:30N 50°39' W 001°43'3 6.6
2017-Oct-23 13:00N 50°43' W 001°42'3 5.9
2017-Oct-23 12:29N 50°43' W 001°37'14 0.6
2017-Oct-22 12:17N 50°46' W 001°16'1 4.0
2017-Oct-22 12:00N 50°46' W 001°15'2 3.1
2017-Oct-22 11:30N 50°45' W 001°13'2 3.4
2017-Oct-22 11:00N 50°46' W 001°10'3 6.8
2017-Oct-22 10:30N 50°46' W 001°15'2 4.6
2017-Oct-22 10:00N 50°48' W 001°18'1 2.6
2017-Oct-22 09:27N 50°49' W 001°18'  

Dump ship's entire track history